sensor_id;sensor_type;location;lat;lon;timestamp;P1;durP1;ratioP1;P2;durP2;ratioP2
14316;SDS011;7242;50.858;6.586;2023-10-19T00:00:37;9.10;;;8.20;;
14316;SDS011;7242;50.858;6.586;2023-10-19T00:03:44;8.73;;;7.83;;
14316;SDS011;7242;50.858;6.586;2023-10-19T00:06:45;9.27;;;8.07;;
14316;SDS011;7242;50.858;6.586;2023-10-19T00:09:48;8.97;;;8.07;;
14316;SDS011;7242;50.858;6.586;2023-10-19T00:12:52;9.53;;;8.30;;
14316;SDS011;7242;50.858;6.586;2023-10-19T00:16:00;9.37;;;8.47;;
14316;SDS011;7242;50.858;6.586;2023-10-19T00:19:01;8.20;;;7.40;;
14316;SDS011;7242;50.858;6.586;2023-10-19T00:22:03;9.80;;;8.50;;
14316;SDS011;7242;50.858;6.586;2023-10-19T00:25:08;10.30;;;8.80;;
14316;SDS011;7242;50.858;6.586;2023-10-19T00:28:13;9.57;;;8.37;;
14316;SDS011;7242;50.858;6.586;2023-10-19T00:31:15;9.70;;;8.30;;
14316;SDS011;7242;50.858;6.586;2023-10-19T00:34:16;8.57;;;7.77;;
14316;SDS011;7242;50.858;6.586;2023-10-19T00:37:18;8.63;;;7.83;;
14316;SDS011;7242;50.858;6.586;2023-10-19T00:40:32;8.57;;;7.67;;
14316;SDS011;7242;50.858;6.586;2023-10-19T00:43:40;8.30;;;7.50;;
14316;SDS011;7242;50.858;6.586;2023-10-19T00:46:45;8.07;;;7.27;;
14316;SDS011;7242;50.858;6.586;2023-10-19T00:49:52;8.47;;;7.57;;
14316;SDS011;7242;50.858;6.586;2023-10-19T00:52:54;8.17;;;7.33;;
14316;SDS011;7242;50.858;6.586;2023-10-19T00:55:57;7.80;;;7.03;;
14316;SDS011;7242;50.858;6.586;2023-10-19T00:59:01;9.27;;;7.73;;
14316;SDS011;7242;50.858;6.586;2023-10-19T01:02:21;8.63;;;7.83;;
14316;SDS011;7242;50.858;6.586;2023-10-19T01:05:29;8.20;;;7.40;;
14316;SDS011;7242;50.858;6.586;2023-10-19T01:08:36;8.03;;;7.23;;
14316;SDS011;7242;50.858;6.586;2023-10-19T01:11:42;8.93;;;7.90;;
14316;SDS011;7242;50.858;6.586;2023-10-19T01:15:06;8.57;;;7.67;;
14316;SDS011;7242;50.858;6.586;2023-10-19T01:18:09;8.53;;;7.73;;
14316;SDS011;7242;50.858;6.586;2023-10-19T01:21:14;8.77;;;7.90;;
14316;SDS011;7242;50.858;6.586;2023-10-19T01:24:21;8.10;;;7.30;;
14316;SDS011;7242;50.858;6.586;2023-10-19T01:27:41;8.67;;;6.93;;
14316;SDS011;7242;50.858;6.586;2023-10-19T01:30:43;8.93;;;8.13;;
14316;SDS011;7242;50.858;6.586;2023-10-19T01:33:44;9.00;;;7.93;;
14316;SDS011;7242;50.858;6.586;2023-10-19T01:36:46;8.33;;;7.53;;
14316;SDS011;7242;50.858;6.586;2023-10-19T01:39:50;8.80;;;7.80;;
14316;SDS011;7242;50.858;6.586;2023-10-19T01:42:50;9.63;;;8.37;;
14316;SDS011;7242;50.858;6.586;2023-10-19T01:45:51;10.13;;;9.13;;
14316;SDS011;7242;50.858;6.586;2023-10-19T01:48:55;8.73;;;7.83;;
14316;SDS011;7242;50.858;6.586;2023-10-19T01:51:56;9.63;;;8.60;;
14316;SDS011;7242;50.858;6.586;2023-10-19T01:54:57;8.73;;;7.87;;
14316;SDS011;7242;50.858;6.586;2023-10-19T01:58:07;9.73;;;8.27;;
14316;SDS011;7242;50.858;6.586;2023-10-19T02:01:09;9.00;;;8.17;;
14316;SDS011;7242;50.858;6.586;2023-10-19T02:04:20;9.77;;;8.77;;
14316;SDS011;7242;50.858;6.586;2023-10-19T02:07:22;8.60;;;7.80;;
14316;SDS011;7242;50.858;6.586;2023-10-19T02:10:23;9.43;;;8.47;;
14316;SDS011;7242;50.858;6.586;2023-10-19T02:13:27;9.17;;;8.27;;
14316;SDS011;7242;50.858;6.586;2023-10-19T02:16:28;8.87;;;7.80;;
14316;SDS011;7242;50.858;6.586;2023-10-19T02:19:29;9.17;;;8.17;;
14316;SDS011;7242;50.858;6.586;2023-10-19T02:22:30;9.10;;;8.10;;
14316;SDS011;7242;50.858;6.586;2023-10-19T02:25:31;9.37;;;8.40;;
14316;SDS011;7242;50.858;6.586;2023-10-19T02:28:36;8.90;;;8.10;;
14316;SDS011;7242;50.858;6.586;2023-10-19T02:31:40;10.93;;;8.70;;
14316;SDS011;7242;50.858;6.586;2023-10-19T02:34:41;10.17;;;8.20;;
14316;SDS011;7242;50.858;6.586;2023-10-19T02:37:42;9.33;;;8.40;;
14316;SDS011;7242;50.858;6.586;2023-10-19T02:40:42;8.53;;;7.73;;
14316;SDS011;7242;50.858;6.586;2023-10-19T02:43:43;8.10;;;7.07;;
14316;SDS011;7242;50.858;6.586;2023-10-19T02:46:51;7.67;;;6.97;;
14316;SDS011;7242;50.858;6.586;2023-10-19T02:49:58;7.13;;;6.43;;
14316;SDS011;7242;50.858;6.586;2023-10-19T02:52:59;7.10;;;6.40;;
14316;SDS011;7242;50.858;6.586;2023-10-19T02:56:08;7.53;;;6.70;;
14316;SDS011;7242;50.858;6.586;2023-10-19T02:59:10;8.10;;;7.30;;
14316;SDS011;7242;50.858;6.586;2023-10-19T03:02:11;7.47;;;6.70;;
14316;SDS011;7242;50.858;6.586;2023-10-19T03:05:12;8.53;;;7.63;;
14316;SDS011;7242;50.858;6.586;2023-10-19T03:08:16;7.70;;;6.90;;
14316;SDS011;7242;50.858;6.586;2023-10-19T03:11:19;8.47;;;7.30;;
14316;SDS011;7242;50.858;6.586;2023-10-19T03:14:19;10.03;;;6.70;;
14316;SDS011;7242;50.858;6.586;2023-10-19T03:17:20;8.30;;;6.77;;
14316;SDS011;7242;50.858;6.586;2023-10-19T03:20:22;8.43;;;6.87;;
14316;SDS011;7242;50.858;6.586;2023-10-19T03:23:25;7.83;;;6.57;;
14316;SDS011;7242;50.858;6.586;2023-10-19T03:26:27;10.63;;;7.73;;
14316;SDS011;7242;50.858;6.586;2023-10-19T03:29:31;9.53;;;7.83;;
14316;SDS011;7242;50.858;6.586;2023-10-19T03:32:32;8.10;;;7.30;;
14316;SDS011;7242;50.858;6.586;2023-10-19T03:35:36;7.70;;;6.90;;
14316;SDS011;7242;50.858;6.586;2023-10-19T03:38:39;7.90;;;7.10;;
14316;SDS011;7242;50.858;6.586;2023-10-19T03:41:41;7.87;;;7.13;;
14316;SDS011;7242;50.858;6.586;2023-10-19T03:44:43;8.13;;;6.70;;
14316;SDS011;7242;50.858;6.586;2023-10-19T03:47:51;7.67;;;6.63;;
14316;SDS011;7242;50.858;6.586;2023-10-19T03:50:56;7.23;;;5.97;;
14316;SDS011;7242;50.858;6.586;2023-10-19T03:53:57;7.57;;;6.70;;
14316;SDS011;7242;50.858;6.586;2023-10-19T03:57:01;7.00;;;6.23;;
14316;SDS011;7242;50.858;6.586;2023-10-19T04:00:06;9.57;;;7.57;;
14316;SDS011;7242;50.858;6.586;2023-10-19T04:03:13;9.43;;;7.10;;
14316;SDS011;7242;50.858;6.586;2023-10-19T04:06:14;10.00;;;8.00;;
14316;SDS011;7242;50.858;6.586;2023-10-19T04:09:14;9.83;;;7.77;;
14316;SDS011;7242;50.858;6.586;2023-10-19T04:12:18;9.03;;;6.80;;
14316;SDS011;7242;50.858;6.586;2023-10-19T04:15:19;10.87;;;7.40;;
14316;SDS011;7242;50.858;6.586;2023-10-19T04:18:19;10.97;;;6.93;;
14316;SDS011;7242;50.858;6.586;2023-10-19T04:21:20;11.00;;;7.90;;
14316;SDS011;7242;50.858;6.586;2023-10-19T04:24:21;12.40;;;7.67;;
14316;SDS011;7242;50.858;6.586;2023-10-19T04:27:21;11.40;;;7.83;;
14316;SDS011;7242;50.858;6.586;2023-10-19T04:30:26;10.77;;;7.47;;
14316;SDS011;7242;50.858;6.586;2023-10-19T04:33:27;9.57;;;7.00;;
14316;SDS011;7242;50.858;6.586;2023-10-19T04:36:28;9.57;;;6.73;;
14316;SDS011;7242;50.858;6.586;2023-10-19T04:39:29;9.33;;;6.07;;
14316;SDS011;7242;50.858;6.586;2023-10-19T04:42:30;7.87;;;5.93;;
14316;SDS011;7242;50.858;6.586;2023-10-19T04:45:32;6.67;;;5.50;;
14316;SDS011;7242;50.858;6.586;2023-10-19T04:48:33;8.33;;;5.77;;
14316;SDS011;7242;50.858;6.586;2023-10-19T04:51:35;5.70;;;5.10;;
14316;SDS011;7242;50.858;6.586;2023-10-19T04:54:39;6.37;;;5.40;;
14316;SDS011;7242;50.858;6.586;2023-10-19T04:57:39;5.83;;;5.20;;
14316;SDS011;7242;50.858;6.586;2023-10-19T05:00:40;5.93;;;5.20;;
14316;SDS011;7242;50.858;6.586;2023-10-19T05:03:41;6.20;;;4.90;;
14316;SDS011;7242;50.858;6.586;2023-10-19T05:06:42;5.87;;;5.23;;
14316;SDS011;7242;50.858;6.586;2023-10-19T05:09:45;6.03;;;4.90;;
14316;SDS011;7242;50.858;6.586;2023-10-19T05:12:46;4.93;;;4.47;;
14316;SDS011;7242;50.858;6.586;2023-10-19T05:15:47;4.57;;;4.17;;
14316;SDS011;7242;50.858;6.586;2023-10-19T05:18:48;4.93;;;4.47;;
14316;SDS011;7242;50.858;6.586;2023-10-19T05:21:49;5.40;;;4.20;;
14316;SDS011;7242;50.858;6.586;2023-10-19T05:24:49;7.50;;;4.50;;
14316;SDS011;7242;50.858;6.586;2023-10-19T05:27:50;5.13;;;4.50;;
14316;SDS011;7242;50.858;6.586;2023-10-19T05:30:51;5.73;;;4.50;;
14316;SDS011;7242;50.858;6.586;2023-10-19T05:33:52;5.10;;;4.17;;
14316;SDS011;7242;50.858;6.586;2023-10-19T05:36:53;6.20;;;4.57;;
14316;SDS011;7242;50.858;6.586;2023-10-19T05:39:54;5.00;;;4.20;;
14316;SDS011;7242;50.858;6.586;2023-10-19T05:42:57;6.57;;;4.60;;
14316;SDS011;7242;50.858;6.586;2023-10-19T05:45:58;5.57;;;4.10;;
14316;SDS011;7242;50.858;6.586;2023-10-19T05:49:00;5.77;;;4.33;;
14316;SDS011;7242;50.858;6.586;2023-10-19T05:52:03;4.50;;;4.10;;
14316;SDS011;7242;50.858;6.586;2023-10-19T05:55:04;4.63;;;4.10;;
14316;SDS011;7242;50.858;6.586;2023-10-19T05:58:05;5.80;;;4.30;;
14316;SDS011;7242;50.858;6.586;2023-10-19T06:01:06;4.97;;;3.90;;
14316;SDS011;7242;50.858;6.586;2023-10-19T06:04:07;5.60;;;4.17;;
14316;SDS011;7242;50.858;6.586;2023-10-19T06:07:08;6.10;;;4.20;;
14316;SDS011;7242;50.858;6.586;2023-10-19T06:10:10;5.17;;;4.03;;
14316;SDS011;7242;50.858;6.586;2023-10-19T06:13:16;4.60;;;3.87;;
14316;SDS011;7242;50.858;6.586;2023-10-19T06:16:16;4.53;;;4.13;;
14316;SDS011;7242;50.858;6.586;2023-10-19T06:19:17;5.77;;;4.30;;
14316;SDS011;7242;50.858;6.586;2023-10-19T06:22:18;7.33;;;4.70;;
14316;SDS011;7242;50.858;6.586;2023-10-19T06:25:19;4.77;;;4.37;;
14316;SDS011;7242;50.858;6.586;2023-10-19T06:28:21;5.53;;;4.33;;
14316;SDS011;7242;50.858;6.586;2023-10-19T06:31:21;5.67;;;4.33;;
14316;SDS011;7242;50.858;6.586;2023-10-19T06:34:24;4.63;;;4.23;;
14316;SDS011;7242;50.858;6.586;2023-10-19T06:37:26;7.30;;;4.20;;
14316;SDS011;7242;50.858;6.586;2023-10-19T06:40:27;5.33;;;4.03;;
14316;SDS011;7242;50.858;6.586;2023-10-19T06:43:28;5.23;;;4.40;;
14316;SDS011;7242;50.858;6.586;2023-10-19T06:46:31;4.30;;;3.83;;
14316;SDS011;7242;50.858;6.586;2023-10-19T06:49:31;4.93;;;3.93;;
14316;SDS011;7242;50.858;6.586;2023-10-19T06:52:32;4.23;;;3.67;;
14316;SDS011;7242;50.858;6.586;2023-10-19T06:55:34;5.17;;;3.90;;
14316;SDS011;7242;50.858;6.586;2023-10-19T06:58:34;7.17;;;3.83;;
14316;SDS011;7242;50.858;6.586;2023-10-19T07:01:36;5.57;;;3.70;;
14316;SDS011;7242;50.858;6.586;2023-10-19T07:04:37;4.90;;;3.40;;
14316;SDS011;7242;50.858;6.586;2023-10-19T07:07:39;4.73;;;3.70;;
14316;SDS011;7242;50.858;6.586;2023-10-19T07:10:40;4.50;;;3.53;;
14316;SDS011;7242;50.858;6.586;2023-10-19T07:13:43;4.10;;;3.60;;
14316;SDS011;7242;50.858;6.586;2023-10-19T07:16:43;6.40;;;3.53;;
14316;SDS011;7242;50.858;6.586;2023-10-19T07:19:44;3.50;;;3.20;;
14316;SDS011;7242;50.858;6.586;2023-10-19T07:22:48;3.80;;;3.03;;
14316;SDS011;7242;50.858;6.586;2023-10-19T07:25:50;4.10;;;3.37;;
14316;SDS011;7242;50.858;6.586;2023-10-19T07:28:56;3.30;;;3.00;;
14316;SDS011;7242;50.858;6.586;2023-10-19T07:31:57;4.57;;;2.73;;
14316;SDS011;7242;50.858;6.586;2023-10-19T07:34:58;6.40;;;3.17;;
14316;SDS011;7242;50.858;6.586;2023-10-19T07:37:59;3.83;;;2.97;;
14316;SDS011;7242;50.858;6.586;2023-10-19T07:40:59;4.80;;;3.23;;
14316;SDS011;7242;50.858;6.586;2023-10-19T07:44:01;4.20;;;2.93;;
14316;SDS011;7242;50.858;6.586;2023-10-19T07:47:02;5.43;;;2.93;;
14316;SDS011;7242;50.858;6.586;2023-10-19T07:50:03;2.93;;;2.33;;
14316;SDS011;7242;50.858;6.586;2023-10-19T07:53:04;3.93;;;2.17;;
14316;SDS011;7242;50.858;6.586;2023-10-19T07:56:04;4.00;;;2.50;;
14316;SDS011;7242;50.858;6.586;2023-10-19T07:59:05;3.50;;;2.00;;
14316;SDS011;7242;50.858;6.586;2023-10-19T08:02:07;4.43;;;2.10;;
14316;SDS011;7242;50.858;6.586;2023-10-19T08:05:08;3.47;;;2.10;;
14316;SDS011;7242;50.858;6.586;2023-10-19T08:08:11;5.07;;;2.43;;
14316;SDS011;7242;50.858;6.586;2023-10-19T08:11:12;6.07;;;2.50;;
14316;SDS011;7242;50.858;6.586;2023-10-19T08:14:13;4.87;;;2.10;;
14316;SDS011;7242;50.858;6.586;2023-10-19T08:17:14;3.37;;;2.10;;
14316;SDS011;7242;50.858;6.586;2023-10-19T08:20:15;4.13;;;2.20;;
14316;SDS011;7242;50.858;6.586;2023-10-19T08:23:16;4.23;;;2.07;;
14316;SDS011;7242;50.858;6.586;2023-10-19T08:26:23;3.93;;;2.13;;
14316;SDS011;7242;50.858;6.586;2023-10-19T08:29:25;8.67;;;2.60;;
14316;SDS011;7242;50.858;6.586;2023-10-19T08:32:25;5.73;;;2.63;;
14316;SDS011;7242;50.858;6.586;2023-10-19T08:35:27;6.03;;;2.53;;
14316;SDS011;7242;50.858;6.586;2023-10-19T08:38:27;6.77;;;2.20;;
14316;SDS011;7242;50.858;6.586;2023-10-19T08:41:28;4.23;;;2.10;;
14316;SDS011;7242;50.858;6.586;2023-10-19T08:44:29;5.57;;;2.20;;
14316;SDS011;7242;50.858;6.586;2023-10-19T08:47:31;5.73;;;1.80;;
14316;SDS011;7242;50.858;6.586;2023-10-19T08:50:33;5.43;;;1.93;;
14316;SDS011;7242;50.858;6.586;2023-10-19T08:53:34;4.93;;;1.77;;
14316;SDS011;7242;50.858;6.586;2023-10-19T08:56:40;5.37;;;2.00;;
14316;SDS011;7242;50.858;6.586;2023-10-19T08:59:41;7.60;;;2.00;;
14316;SDS011;7242;50.858;6.586;2023-10-19T09:02:42;5.97;;;2.40;;
14316;SDS011;7242;50.858;6.586;2023-10-19T09:05:43;7.60;;;2.70;;
14316;SDS011;7242;50.858;6.586;2023-10-19T09:08:46;11.00;;;3.43;;
14316;SDS011;7242;50.858;6.586;2023-10-19T09:11:48;7.17;;;3.30;;
14316;SDS011;7242;50.858;6.586;2023-10-19T09:14:49;5.00;;;3.43;;
14316;SDS011;7242;50.858;6.586;2023-10-19T09:17:50;7.60;;;3.37;;
14316;SDS011;7242;50.858;6.586;2023-10-19T09:20:54;9.80;;;3.10;;
14316;SDS011;7242;50.858;6.586;2023-10-19T09:24:07;6.23;;;2.60;;
14316;SDS011;7242;50.858;6.586;2023-10-19T09:27:09;6.70;;;2.40;;
14316;SDS011;7242;50.858;6.586;2023-10-19T09:30:10;7.37;;;2.60;;
14316;SDS011;7242;50.858;6.586;2023-10-19T09:33:17;8.00;;;2.57;;
14316;SDS011;7242;50.858;6.586;2023-10-19T09:36:18;8.00;;;2.43;;
14316;SDS011;7242;50.858;6.586;2023-10-19T09:39:20;6.67;;;2.10;;
14316;SDS011;7242;50.858;6.586;2023-10-19T09:42:24;7.53;;;2.23;;
14316;SDS011;7242;50.858;6.586;2023-10-19T09:45:28;6.80;;;2.10;;
14316;SDS011;7242;50.858;6.586;2023-10-19T09:48:32;7.70;;;2.13;;
14316;SDS011;7242;50.858;6.586;2023-10-19T09:51:45;5.07;;;1.73;;
14316;SDS011;7242;50.858;6.586;2023-10-19T09:54:54;7.03;;;2.10;;
14316;SDS011;7242;50.858;6.586;2023-10-19T09:58:06;5.57;;;1.80;;
14316;SDS011;7242;50.858;6.586;2023-10-19T10:01:07;6.50;;;2.00;;
14316;SDS011;7242;50.858;6.586;2023-10-19T10:04:30;8.97;;;2.13;;
14316;SDS011;7242;50.858;6.586;2023-10-19T10:07:31;8.33;;;2.67;;
14316;SDS011;7242;50.858;6.586;2023-10-19T10:10:32;7.77;;;2.07;;
14316;SDS011;7242;50.858;6.586;2023-10-19T10:16:33;5.47;;;1.70;;
14316;SDS011;7242;50.858;6.586;2023-10-19T10:19:34;5.20;;;1.80;;
14316;SDS011;7242;50.858;6.586;2023-10-19T10:22:35;7.87;;;2.27;;
14316;SDS011;7242;50.858;6.586;2023-10-19T10:25:35;6.10;;;1.53;;
14316;SDS011;7242;50.858;6.586;2023-10-19T10:28:37;5.77;;;1.80;;
14316;SDS011;7242;50.858;6.586;2023-10-19T10:31:42;5.90;;;1.57;;
14316;SDS011;7242;50.858;6.586;2023-10-19T10:34:44;7.13;;;1.90;;
14316;SDS011;7242;50.858;6.586;2023-10-19T10:37:53;4.47;;;1.80;;
14316;SDS011;7242;50.858;6.586;2023-10-19T10:40:56;7.37;;;1.97;;
14316;SDS011;7242;50.858;6.586;2023-10-19T10:43:57;7.03;;;1.80;;
14316;SDS011;7242;50.858;6.586;2023-10-19T10:46:58;6.90;;;1.50;;
14316;SDS011;7242;50.858;6.586;2023-10-19T10:50:00;5.27;;;1.53;;
14316;SDS011;7242;50.858;6.586;2023-10-19T10:53:01;6.63;;;1.90;;
14316;SDS011;7242;50.858;6.586;2023-10-19T10:56:02;8.70;;;2.00;;
14316;SDS011;7242;50.858;6.586;2023-10-19T10:59:11;6.93;;;1.80;;
14316;SDS011;7242;50.858;6.586;2023-10-19T11:02:18;6.70;;;1.70;;
14316;SDS011;7242;50.858;6.586;2023-10-19T11:05:20;6.90;;;1.93;;
14316;SDS011;7242;50.858;6.586;2023-10-19T11:08:24;5.57;;;1.90;;
14316;SDS011;7242;50.858;6.586;2023-10-19T11:11:24;5.70;;;1.93;;
14316;SDS011;7242;50.858;6.586;2023-10-19T11:14:26;9.60;;;2.17;;
14316;SDS011;7242;50.858;6.586;2023-10-19T11:17:30;5.57;;;1.70;;
14316;SDS011;7242;50.858;6.586;2023-10-19T11:20:31;9.57;;;1.80;;
14316;SDS011;7242;50.858;6.586;2023-10-19T11:26:42;10.13;;;2.10;;
14316;SDS011;7242;50.858;6.586;2023-10-19T11:32:56;5.23;;;1.53;;
14316;SDS011;7242;50.858;6.586;2023-10-19T11:35:58;5.90;;;1.93;;
14316;SDS011;7242;50.858;6.586;2023-10-19T11:38:58;5.60;;;1.57;;
14316;SDS011;7242;50.858;6.586;2023-10-19T11:41:59;6.17;;;1.40;;
14316;SDS011;7242;50.858;6.586;2023-10-19T11:45:00;5.73;;;1.67;;
14316;SDS011;7242;50.858;6.586;2023-10-19T11:48:00;6.47;;;1.70;;
14316;SDS011;7242;50.858;6.586;2023-10-19T11:51:04;6.93;;;1.63;;
14316;SDS011;7242;50.858;6.586;2023-10-19T11:54:05;7.57;;;1.87;;
14316;SDS011;7242;50.858;6.586;2023-10-19T11:57:10;8.67;;;2.13;;
14316;SDS011;7242;50.858;6.586;2023-10-19T12:00:11;6.83;;;2.23;;
14316;SDS011;7242;50.858;6.586;2023-10-19T12:03:36;6.30;;;1.93;;
14316;SDS011;7242;50.858;6.586;2023-10-19T12:06:37;6.97;;;1.83;;
14316;SDS011;7242;50.858;6.586;2023-10-19T12:09:38;8.10;;;1.83;;
14316;SDS011;7242;50.858;6.586;2023-10-19T12:12:41;8.37;;;2.40;;
14316;SDS011;7242;50.858;6.586;2023-10-19T12:15:42;8.13;;;1.90;;
14316;SDS011;7242;50.858;6.586;2023-10-19T12:18:51;7.07;;;1.70;;
14316;SDS011;7242;50.858;6.586;2023-10-19T12:21:52;5.87;;;2.23;;
14316;SDS011;7242;50.858;6.586;2023-10-19T12:24:54;8.00;;;1.90;;
14316;SDS011;7242;50.858;6.586;2023-10-19T12:27:57;8.30;;;2.30;;
14316;SDS011;7242;50.858;6.586;2023-10-19T12:30:58;6.93;;;1.80;;
14316;SDS011;7242;50.858;6.586;2023-10-19T12:33:59;4.97;;;1.90;;
14316;SDS011;7242;50.858;6.586;2023-10-19T12:36:59;8.27;;;2.30;;
14316;SDS011;7242;50.858;6.586;2023-10-19T12:40:02;4.73;;;1.93;;
14316;SDS011;7242;50.858;6.586;2023-10-19T12:43:23;7.27;;;1.70;;
14316;SDS011;7242;50.858;6.586;2023-10-19T12:46:25;6.73;;;1.90;;
14316;SDS011;7242;50.858;6.586;2023-10-19T12:49:27;7.77;;;2.10;;
14316;SDS011;7242;50.858;6.586;2023-10-19T12:52:28;8.43;;;1.93;;
14316;SDS011;7242;50.858;6.586;2023-10-19T12:55:29;8.20;;;2.10;;
14316;SDS011;7242;50.858;6.586;2023-10-19T12:58:31;7.63;;;2.13;;
14316;SDS011;7242;50.858;6.586;2023-10-19T13:01:33;6.77;;;2.00;;
14316;SDS011;7242;50.858;6.586;2023-10-19T13:04:35;7.63;;;1.87;;
14316;SDS011;7242;50.858;6.586;2023-10-19T13:07:38;7.17;;;2.37;;
14316;SDS011;7242;50.858;6.586;2023-10-19T13:10:40;5.87;;;2.20;;
14316;SDS011;7242;50.858;6.586;2023-10-19T13:13:45;8.37;;;2.10;;
14316;SDS011;7242;50.858;6.586;2023-10-19T13:16:46;7.33;;;2.27;;
14316;SDS011;7242;50.858;6.586;2023-10-19T13:19:50;7.40;;;2.20;;
14316;SDS011;7242;50.858;6.586;2023-10-19T13:22:55;8.03;;;2.13;;
14316;SDS011;7242;50.858;6.586;2023-10-19T13:25:56;6.60;;;2.50;;
14316;SDS011;7242;50.858;6.586;2023-10-19T13:29:15;5.47;;;2.20;;
14316;SDS011;7242;50.858;6.586;2023-10-19T13:32:17;4.93;;;2.33;;
14316;SDS011;7242;50.858;6.586;2023-10-19T13:35:17;9.57;;;2.97;;
14316;SDS011;7242;50.858;6.586;2023-10-19T13:38:18;5.70;;;2.43;;
14316;SDS011;7242;50.858;6.586;2023-10-19T13:41:24;4.70;;;2.17;;
14316;SDS011;7242;50.858;6.586;2023-10-19T13:44:24;3.83;;;1.90;;
14316;SDS011;7242;50.858;6.586;2023-10-19T13:47:25;5.87;;;2.10;;
14316;SDS011;7242;50.858;6.586;2023-10-19T13:50:26;5.67;;;2.20;;
14316;SDS011;7242;50.858;6.586;2023-10-19T13:53:26;6.97;;;2.37;;
14316;SDS011;7242;50.858;6.586;2023-10-19T13:56:27;5.10;;;2.03;;
14316;SDS011;7242;50.858;6.586;2023-10-19T13:59:28;6.63;;;2.50;;
14316;SDS011;7242;50.858;6.586;2023-10-19T14:02:29;5.77;;;2.53;;
14316;SDS011;7242;50.858;6.586;2023-10-19T14:05:35;5.20;;;2.10;;
14316;SDS011;7242;50.858;6.586;2023-10-19T14:08:37;5.97;;;2.00;;
14316;SDS011;7242;50.858;6.586;2023-10-19T14:11:38;5.33;;;1.80;;
14316;SDS011;7242;50.858;6.586;2023-10-19T14:14:38;5.70;;;2.13;;
14316;SDS011;7242;50.858;6.586;2023-10-19T14:17:39;5.30;;;2.20;;
14316;SDS011;7242;50.858;6.586;2023-10-19T14:20:40;7.93;;;2.30;;
14316;SDS011;7242;50.858;6.586;2023-10-19T14:23:41;6.07;;;2.00;;
14316;SDS011;7242;50.858;6.586;2023-10-19T14:26:43;4.20;;;2.40;;
14316;SDS011;7242;50.858;6.586;2023-10-19T14:29:46;4.93;;;2.77;;
14316;SDS011;7242;50.858;6.586;2023-10-19T14:32:47;4.40;;;2.40;;
14316;SDS011;7242;50.858;6.586;2023-10-19T14:35:49;4.20;;;2.50;;
14316;SDS011;7242;50.858;6.586;2023-10-19T14:38:49;6.33;;;2.97;;
14316;SDS011;7242;50.858;6.586;2023-10-19T14:41:50;6.03;;;3.10;;
14316;SDS011;7242;50.858;6.586;2023-10-19T14:44:51;6.10;;;2.73;;
14316;SDS011;7242;50.858;6.586;2023-10-19T14:47:52;9.73;;;2.80;;
14316;SDS011;7242;50.858;6.586;2023-10-19T14:50:57;6.90;;;2.43;;
14316;SDS011;7242;50.858;6.586;2023-10-19T14:53:58;8.47;;;2.83;;
14316;SDS011;7242;50.858;6.586;2023-10-19T14:56:59;7.87;;;2.80;;
14316;SDS011;7242;50.858;6.586;2023-10-19T14:59:59;5.40;;;2.23;;
14316;SDS011;7242;50.858;6.586;2023-10-19T15:03:09;6.33;;;2.43;;
14316;SDS011;7242;50.858;6.586;2023-10-19T15:06:11;5.20;;;2.40;;
14316;SDS011;7242;50.858;6.586;2023-10-19T15:09:14;9.40;;;2.80;;
14316;SDS011;7242;50.858;6.586;2023-10-19T15:12:16;5.73;;;2.50;;
14316;SDS011;7242;50.858;6.586;2023-10-19T15:15:17;4.17;;;2.33;;
14316;SDS011;7242;50.858;6.586;2023-10-19T15:18:17;3.97;;;2.43;;
14316;SDS011;7242;50.858;6.586;2023-10-19T15:21:18;5.43;;;2.63;;
14316;SDS011;7242;50.858;6.586;2023-10-19T15:24:19;6.37;;;2.83;;
14316;SDS011;7242;50.858;6.586;2023-10-19T15:27:19;5.83;;;3.00;;
14316;SDS011;7242;50.858;6.586;2023-10-19T15:30:20;7.47;;;2.80;;
14316;SDS011;7242;50.858;6.586;2023-10-19T15:33:22;5.53;;;2.90;;
14316;SDS011;7242;50.858;6.586;2023-10-19T15:36:23;6.37;;;3.20;;
14316;SDS011;7242;50.858;6.586;2023-10-19T15:39:24;5.33;;;3.03;;
14316;SDS011;7242;50.858;6.586;2023-10-19T15:42:24;5.70;;;3.00;;
14316;SDS011;7242;50.858;6.586;2023-10-19T15:45:26;7.23;;;3.60;;
14316;SDS011;7242;50.858;6.586;2023-10-19T15:48:28;8.80;;;3.53;;
14316;SDS011;7242;50.858;6.586;2023-10-19T15:51:31;6.07;;;3.17;;
14316;SDS011;7242;50.858;6.586;2023-10-19T15:54:32;10.60;;;3.67;;
14316;SDS011;7242;50.858;6.586;2023-10-19T15:57:32;8.90;;;3.60;;
14316;SDS011;7242;50.858;6.586;2023-10-19T16:00:33;6.93;;;3.77;;
14316;SDS011;7242;50.858;6.586;2023-10-19T16:03:34;9.13;;;3.30;;
14316;SDS011;7242;50.858;6.586;2023-10-19T16:06:35;7.43;;;4.03;;
14316;SDS011;7242;50.858;6.586;2023-10-19T16:09:35;6.87;;;4.13;;
14316;SDS011;7242;50.858;6.586;2023-10-19T16:12:39;6.57;;;3.87;;
14316;SDS011;7242;50.858;6.586;2023-10-19T16:15:40;6.60;;;4.10;;
14316;SDS011;7242;50.858;6.586;2023-10-19T16:18:41;8.37;;;4.00;;
14316;SDS011;7242;50.858;6.586;2023-10-19T16:21:42;7.27;;;4.10;;
14316;SDS011;7242;50.858;6.586;2023-10-19T16:24:43;8.17;;;4.27;;
14316;SDS011;7242;50.858;6.586;2023-10-19T16:27:44;6.37;;;3.83;;
14316;SDS011;7242;50.858;6.586;2023-10-19T16:30:44;7.87;;;4.83;;
14316;SDS011;7242;50.858;6.586;2023-10-19T16:33:45;8.03;;;5.20;;
14316;SDS011;7242;50.858;6.586;2023-10-19T16:36:47;10.87;;;5.30;;
14316;SDS011;7242;50.858;6.586;2023-10-19T16:39:48;5.87;;;4.80;;
14316;SDS011;7242;50.858;6.586;2023-10-19T16:42:48;8.47;;;5.10;;
14316;SDS011;7242;50.858;6.586;2023-10-19T16:45:49;10.20;;;5.33;;
14316;SDS011;7242;50.858;6.586;2023-10-19T16:48:50;6.57;;;5.53;;
14316;SDS011;7242;50.858;6.586;2023-10-19T16:51:50;9.63;;;6.50;;
14316;SDS011;7242;50.858;6.586;2023-10-19T16:54:51;6.73;;;5.73;;
14316;SDS011;7242;50.858;6.586;2023-10-19T16:57:52;6.77;;;5.37;;
14316;SDS011;7242;50.858;6.586;2023-10-19T17:00:59;8.10;;;6.20;;
14316;SDS011;7242;50.858;6.586;2023-10-19T17:03:59;7.50;;;6.40;;
14316;SDS011;7242;50.858;6.586;2023-10-19T17:07:01;7.93;;;6.57;;
14316;SDS011;7242;50.858;6.586;2023-10-19T17:10:02;7.70;;;6.97;;
14316;SDS011;7242;50.858;6.586;2023-10-19T17:13:03;7.40;;;6.60;;
14316;SDS011;7242;50.858;6.586;2023-10-19T17:16:04;7.93;;;6.57;;
14316;SDS011;7242;50.858;6.586;2023-10-19T17:19:05;8.57;;;7.00;;
14316;SDS011;7242;50.858;6.586;2023-10-19T17:22:06;8.93;;;7.27;;
14316;SDS011;7242;50.858;6.586;2023-10-19T17:25:07;8.20;;;7.00;;
14316;SDS011;7242;50.858;6.586;2023-10-19T17:28:08;10.17;;;7.13;;
14316;SDS011;7242;50.858;6.586;2023-10-19T17:31:09;9.73;;;7.40;;
14316;SDS011;7242;50.858;6.586;2023-10-19T17:34:11;11.07;;;7.20;;
14316;SDS011;7242;50.858;6.586;2023-10-19T17:37:12;8.20;;;7.00;;
14316;SDS011;7242;50.858;6.586;2023-10-19T17:40:13;9.33;;;7.30;;
14316;SDS011;7242;50.858;6.586;2023-10-19T17:43:13;11.10;;;7.20;;
14316;SDS011;7242;50.858;6.586;2023-10-19T17:46:14;8.13;;;7.33;;
14316;SDS011;7242;50.858;6.586;2023-10-19T17:49:15;9.80;;;7.50;;
14316;SDS011;7242;50.858;6.586;2023-10-19T17:52:16;9.23;;;7.33;;
14316;SDS011;7242;50.858;6.586;2023-10-19T17:55:17;9.90;;;7.47;;
14316;SDS011;7242;50.858;6.586;2023-10-19T17:58:20;9.93;;;8.17;;
14316;SDS011;7242;50.858;6.586;2023-10-19T18:01:21;9.90;;;7.80;;
14316;SDS011;7242;50.858;6.586;2023-10-19T18:04:22;8.80;;;7.63;;
14316;SDS011;7242;50.858;6.586;2023-10-19T18:07:23;10.50;;;7.97;;
14316;SDS011;7242;50.858;6.586;2023-10-19T18:10:24;10.67;;;8.43;;
14316;SDS011;7242;50.858;6.586;2023-10-19T18:13:28;9.90;;;8.17;;
14316;SDS011;7242;50.858;6.586;2023-10-19T18:16:31;10.47;;;8.53;;
14316;SDS011;7242;50.858;6.586;2023-10-19T18:19:32;9.13;;;8.27;;
14316;SDS011;7242;50.858;6.586;2023-10-19T18:22:33;10.07;;;8.03;;
14316;SDS011;7242;50.858;6.586;2023-10-19T18:25:39;13.50;;;8.47;;
14316;SDS011;7242;50.858;6.586;2023-10-19T18:28:44;10.37;;;8.93;;
14316;SDS011;7242;50.858;6.586;2023-10-19T18:31:47;11.33;;;8.77;;
14316;SDS011;7242;50.858;6.586;2023-10-19T18:34:48;12.53;;;9.80;;
14316;SDS011;7242;50.858;6.586;2023-10-19T18:37:49;10.17;;;9.13;;
14316;SDS011;7242;50.858;6.586;2023-10-19T18:40:54;11.10;;;9.90;;
14316;SDS011;7242;50.858;6.586;2023-10-19T18:43:59;13.80;;;9.70;;